Time,TemperatureF,DewpointF,PressureIn,WindDirection,WindDirectionDegrees,WindSpeedMPH,WindSpeedGustMPH,Humidity,HourlyPrecipIn,Conditions,Clouds,dailyrainin,SoftwareType,DateUTC
2013-02-06 00:01:00,16.0,13.0,29.98,SSE,150,2.0,3.0,89,0.00,,,0.01,,2013-02-06 07:01:00,
2013-02-06 00:11:00,16.0,13.0,29.98,SSE,150,2.0,3.0,89,0.00,,,0.01,,2013-02-06 07:11:00,
2013-02-06 00:21:00,17.0,14.0,29.99,SSE,150,2.0,5.0,87,0.00,,,0.01,,2013-02-06 07:21:00,
2013-02-06 00:32:00,15.0,12.0,29.98,SSE,150,0.0,5.0,87,0.00,,,0.01,,2013-02-06 07:32:00,
2013-02-06 00:41:00,15.0,12.0,29.98,SSE,150,0.0,5.0,87,0.00,,,0.01,,2013-02-06 07:41:00,
2013-02-06 00:52:00,15.0,12.0,29.98,SSE,150,0.0,0.0,88,0.00,,,0.01,,2013-02-06 07:52:00,
2013-02-06 01:01:00,16.0,13.0,29.98,SSE,150,0.0,2.0,89,0.00,,,0.01,,2013-02-06 08:01:00,
2013-02-06 01:11:00,16.0,13.0,29.98,SSE,150,0.0,2.0,89,0.00,,,0.01,,2013-02-06 08:11:00,
2013-02-06 01:21:00,16.0,13.0,29.99,SSE,150,1.0,2.0,88,0.00,,,0.01,,2013-02-06 08:21:00,
2013-02-06 01:31:00,15.0,12.0,29.98,SSE,150,2.0,3.0,87,0.00,,,0.01,,2013-02-06 08:31:00,
2013-02-06 01:41:00,15.0,12.0,29.98,SSE,150,2.0,3.0,87,0.00,,,0.01,,2013-02-06 08:41:00,
2013-02-06 01:53:00,15.0,12.0,29.98,SSE,150,1.0,3.0,88,0.00,,,0.01,,2013-02-06 08:53:00,
2013-02-06 02:01:00,15.0,12.0,29.98,SSE,150,0.0,2.0,88,0.00,,,0.01,,2013-02-06 09:01:00,
2013-02-06 02:11:00,15.0,12.0,29.98,SSE,150,0.0,2.0,88,0.00,,,0.01,,2013-02-06 09:11:00,
2013-02-06 02:21:00,14.0,11.0,29.98,SSE,150,0.0,3.0,88,0.00,,,0.01,,2013-02-06 09:21:00,
2013-02-06 02:31:00,15.0,12.0,29.99,SSE,150,0.0,2.0,89,0.00,,,0.01,,2013-02-06 09:31:00,
2013-02-06 02:41:00,15.0,12.0,29.99,SSE,150,0.0,2.0,89,0.00,,,0.01,,2013-02-06 09:41:00,
2013-02-06 02:52:00,15.0,12.0,29.99,SSE,150,0.0,0.0,89,0.00,,,0.01,,2013-02-06 09:52:00,
2013-02-06 03:01:00,14.0,11.0,29.99,SSE,150,0.0,3.0,87,0.00,,,0.01,,2013-02-06 10:01:00,
2013-02-06 03:11:00,14.0,11.0,29.99,SSE,150,0.0,3.0,87,0.00,,,0.01,,2013-02-06 10:11:00,
2013-02-06 03:21:00,14.0,11.0,29.99,SSE,150,0.0,2.0,89,0.00,,,0.01,,2013-02-06 10:21:00,
2013-02-06 03:31:00,15.0,12.0,29.99,SSE,150,0.0,4.0,89,0.00,,,0.01,,2013-02-06 10:31:00,
2013-02-06 03:41:00,15.0,12.0,29.99,SSE,150,0.0,4.0,89,0.00,,,0.01,,2013-02-06 10:41:00,
2013-02-06 03:52:00,14.0,11.0,29.99,SSE,150,2.0,3.0,88,0.00,,,0.01,,2013-02-06 10:52:00,
2013-02-06 04:01:00,14.0,11.0,29.99,SSE,150,0.0,5.0,88,0.00,,,0.01,,2013-02-06 11:01:00,
2013-02-06 04:11:00,14.0,11.0,29.99,SSE,150,0.0,5.0,88,0.00,,,0.01,,2013-02-06 11:11:00,
2013-02-06 04:21:00,14.0,11.0,30.00,SSE,150,0.0,3.0,89,0.00,,,0.01,,2013-02-06 11:21:00,
2013-02-06 04:31:00,13.0,10.0,30.01,SSE,150,0.0,3.0,89,0.00,,,0.01,,2013-02-06 11:31:00,
2013-02-06 04:41:00,13.0,10.0,30.01,SSE,150,0.0,3.0,89,0.00,,,0.01,,2013-02-06 11:41:00,
2013-02-06 04:52:00,13.0,10.0,30.00,SSE,150,0.0,6.0,88,0.00,,,0.01,,2013-02-06 11:52:00,
2013-02-06 05:01:00,13.0,11.0,30.02,SSE,150,0.0,5.0,90,0.00,,,0.01,,2013-02-06 12:01:00,
2013-02-06 05:22:00,14.0,11.0,30.01,SSE,150,1.0,4.0,89,0.00,,,0.01,,2013-02-06 12:22:00,
2013-02-06 05:32:00,14.0,11.0,30.02,SSE,150,2.0,5.0,89,0.00,,,0.01,,2013-02-06 12:32:00,
2013-02-06 05:41:00,14.0,11.0,30.02,SSE,150,2.0,5.0,89,0.00,,,0.01,,2013-02-06 12:41:00,
2013-02-06 05:52:00,14.0,11.0,30.02,SSE,150,2.0,5.0,89,0.00,,,0.01,,2013-02-06 12:52:00,
2013-02-06 06:01:00,14.0,11.0,30.03,SSE,167,0.0,4.0,89,0.00,,,0.01,,2013-02-06 13:01:00,
2013-02-06 06:21:00,14.0,11.0,30.02,SSE,167,2.0,7.0,89,0.00,,,0.01,,2013-02-06 13:21:00,
2013-02-06 06:31:00,14.0,11.0,30.03,SSE,167,2.0,5.0,89,0.00,,,0.01,,2013-02-06 13:31:00,
2013-02-06 06:41:00,14.0,11.0,30.03,SSE,167,2.0,5.0,89,0.00,,,0.01,,2013-02-06 13:41:00,
2013-02-06 06:52:00,13.0,10.0,30.04,SSE,167,0.0,3.0,88,0.00,,,0.01,,2013-02-06 13:52:00,
2013-02-06 07:01:00,14.0,12.0,30.03,SSE,167,2.0,5.0,90,0.00,,,0.01,,2013-02-06 14:01:00,
2013-02-06 07:21:00,13.0,10.0,30.05,SSE,167,4.0,7.0,88,0.00,,,0.01,,2013-02-06 14:21:00,
2013-02-06 07:31:00,14.0,12.0,30.05,SSE,167,1.0,4.0,90,0.00,,,0.01,,2013-02-06 14:31:00,
2013-02-06 07:41:00,14.0,12.0,30.05,SSE,167,1.0,4.0,90,0.00,,,0.01,,2013-02-06 14:41:00,
2013-02-06 07:52:00,14.0,11.0,30.06,SSE,167,2.0,4.0,89,0.00,,,0.01,,2013-02-06 14:52:00,
2013-02-06 08:01:00,14.0,11.0,30.06,SSE,167,1.0,8.0,89,0.00,,,0.01,,2013-02-06 15:01:00,
2013-02-06 08:21:00,14.0,11.0,30.08,SSE,167,0.0,5.0,89,0.00,,,0.01,,2013-02-06 15:21:00,
2013-02-06 08:31:00,14.0,11.0,30.10,SSE,167,3.0,4.0,89,0.00,,,0.01,,2013-02-06 15:31:00,
2013-02-06 08:41:00,14.0,11.0,30.10,SSE,167,3.0,4.0,89,0.00,,,0.01,,2013-02-06 15:41:00,
2013-02-06 08:52:00,17.0,14.0,30.10,SSE,167,2.0,5.0,89,0.00,,,0.01,,2013-02-06 15:52:00,
2013-02-06 09:01:00,18.0,15.0,30.10,SSE,167,2.0,4.0,87,0.00,,,0.01,,2013-02-06 16:01:00,
2013-02-06 09:11:00,18.0,15.0,30.10,SSE,167,2.0,4.0,87,0.00,,,0.01,,2013-02-06 16:11:00,
2013-02-06 09:21:00,18.0,14.0,30.11,SSE,167,0.0,5.0,83,0.00,,,0.01,,2013-02-06 16:21:00,
2013-02-06 09:31:00,19.0,15.0,30.11,SSE,167,0.0,3.0,85,0.00,,,0.01,,2013-02-06 16:31:00,
2013-02-06 09:41:00,19.0,15.0,30.11,SSE,167,0.0,3.0,85,0.00,,,0.01,,2013-02-06 16:41:00,
2013-02-06 09:52:00,21.0,17.0,30.12,SSE,167,1.0,4.0,84,0.00,,,0.01,,2013-02-06 16:52:00,
2013-02-06 10:01:00,23.0,18.0,30.11,SSE,167,2.0,7.0,81,0.00,,,0.01,,2013-02-06 17:01:00,
2013-02-06 10:21:00,25.0,19.0,30.12,SSE,167,0.0,4.0,79,0.00,,,0.01,,2013-02-06 17:21:00,
2013-02-06 10:32:00,26.0,20.0,30.13,SSE,167,0.0,3.0,77,0.00,,,0.01,,2013-02-06 17:32:00,
2013-02-06 10:41:00,26.0,20.0,30.13,SSE,167,0.0,3.0,77,0.00,,,0.01,,2013-02-06 17:41:00,
2013-02-06 10:52:00,29.0,21.0,30.13,SSE,167,1.0,4.0,73,0.00,,,0.01,,2013-02-06 17:52:00,
2013-02-06 11:01:00,28.0,20.0,30.13,SSE,167,2.0,5.0,72,0.00,,,0.01,,2013-02-06 18:01:00,
2013-02-06 11:11:00,25.0,19.0,30.14,SSE,167,1.0,6.0,78,0.00,,,0.01,,2013-02-06 18:11:00,
2013-02-06 11:22:00,25.0,19.0,30.14,SSE,167,1.0,6.0,78,0.00,,,0.01,,2013-02-06 18:22:00,
2013-02-06 11:32:00,25.0,19.0,30.14,SSE,167,1.0,6.0,77,0.00,,,0.01,,2013-02-06 18:32:00,
2013-02-06 11:41:00,25.0,19.0,30.14,SSE,167,1.0,6.0,77,0.00,,,0.01,,2013-02-06 18:41:00,
2013-02-06 11:52:00,25.0,19.0,30.14,SSE,167,1.0,6.0,77,0.00,,,0.01,,2013-02-06 18:52:00,
2013-02-06 12:01:00,27.0,20.0,30.14,SSE,167,2.0,7.0,75,0.00,,,0.01,,2013-02-06 19:01:00,
2013-02-06 12:21:00,28.0,21.0,30.14,SSE,167,2.0,5.0,74,0.00,,,0.00,,2013-02-06 19:21:00,
2013-02-06 12:31:00,29.0,22.0,30.13,SSE,167,2.0,5.0,74,0.00,,,0.00,,2013-02-06 19:31:00,
2013-02-06 12:41:00,29.0,22.0,30.13,SSE,167,2.0,5.0,74,0.00,,,0.00,,2013-02-06 19:41:00,
2013-02-06 12:52:00,30.0,23.0,30.12,SSE,167,1.0,5.0,74,0.00,,,0.00,,2013-02-06 19:52:00,
2013-02-06 13:01:00,31.0,23.0,30.12,SSE,167,2.0,5.0,72,0.00,,,0.00,,2013-02-06 20:01:00,
2013-02-06 13:11:00,32.0,24.0,30.11,SSE,167,1.0,5.0,71,0.00,,,0.00,,2013-02-06 20:11:00,
2013-02-06 13:21:00,32.0,24.0,30.11,SSE,167,1.0,5.0,71,0.00,,,0.00,,2013-02-06 20:21:00,
2013-02-06 13:31:00,33.0,24.0,30.11,SSE,167,3.0,6.0,68,0.01,,,0.01,,2013-02-06 20:31:00,
2013-02-06 13:41:00,33.0,24.0,30.11,SSE,167,3.0,6.0,68,0.01,,,0.01,,2013-02-06 20:41:00,
2013-02-06 13:52:00,33.0,24.0,30.11,SSE,167,1.0,5.0,70,0.01,,,0.01,,2013-02-06 20:52:00,
2013-02-06 14:01:00,34.0,25.0,30.11,SSE,167,2.0,4.0,68,0.01,,,0.01,,2013-02-06 21:01:00,
2013-02-06 14:11:00,34.0,25.0,30.11,SSE,167,2.0,4.0,68,0.01,,,0.01,,2013-02-06 21:11:00,
2013-02-06 14:21:00,35.0,24.0,30.11,SSE,167,1.0,3.0,65,0.01,,,0.01,,2013-02-06 21:21:00,
2013-02-06 14:31:00,36.0,26.0,30.11,SSE,167,0.0,4.0,66,0.00,,,0.01,,2013-02-06 21:31:00,
2013-02-06 14:41:00,36.0,26.0,30.11,SSE,167,0.0,4.0,66,0.00,,,0.01,,2013-02-06 21:41:00,
2013-02-06 14:52:00,36.0,26.0,30.11,SSE,167,0.0,3.0,66,0.00,,,0.01,,2013-02-06 21:52:00,
2013-02-06 15:01:00,36.0,26.0,30.11,SSE,167,0.0,3.0,66,0.00,,,0.01,,2013-02-06 22:01:00,
2013-02-06 15:11:00,36.0,26.0,30.11,SSE,167,0.0,3.0,66,0.00,,,0.01,,2013-02-06 22:11:00,
2013-02-06 15:21:00,36.0,26.0,30.11,SSE,167,2.0,6.0,68,0.00,,,0.01,,2013-02-06 22:21:00,
2013-02-06 15:31:00,36.0,26.0,30.12,SSE,167,2.0,4.0,66,0.00,,,0.01,,2013-02-06 22:31:00,
2013-02-06 15:42:00,36.0,26.0,30.12,SSE,167,2.0,4.0,66,0.00,,,0.01,,2013-02-06 22:42:00,
2013-02-06 15:52:00,37.0,27.0,30.12,SSE,167,0.0,4.0,67,0.00,,,0.01,,2013-02-06 22:52:00,
2013-02-06 16:01:00,36.0,26.0,30.13,SSE,167,0.0,5.0,67,0.00,,,0.01,,2013-02-06 23:01:00,
2013-02-06 16:11:00,36.0,26.0,30.13,SSE,167,0.0,5.0,67,0.00,,,0.01,,2013-02-06 23:11:00,
2013-02-06 16:21:00,36.0,26.0,30.13,SSE,167,0.0,2.0,67,0.00,,,0.01,,2013-02-06 23:21:00,
2013-02-06 16:31:00,36.0,27.0,30.14,SSE,167,1.0,3.0,69,0.00,,,0.01,,2013-02-06 23:31:00,
2013-02-06 16:41:00,36.0,27.0,30.14,SSE,167,1.0,3.0,69,0.00,,,0.01,,2013-02-06 23:41:00,
2013-02-06 16:52:00,35.0,27.0,30.14,SSE,167,0.0,2.0,71,0.00,,,0.01,,2013-02-06 23:52:00,
2013-02-06 17:01:00,34.0,26.0,30.15,SSE,167,1.0,3.0,72,0.00,,,0.01,,2013-02-07 00:01:00,
2013-02-06 17:11:00,34.0,26.0,30.15,SSE,167,1.0,3.0,72,0.00,,,0.01,,2013-02-07 00:11:00,
2013-02-06 17:21:00,34.0,27.0,30.17,SSE,167,2.0,4.0,74,0.00,,,0.01,,2013-02-07 00:21:00,
2013-02-06 17:31:00,33.0,26.0,30.18,SSE,167,3.0,6.0,76,0.00,,,0.01,,2013-02-07 00:31:00,
2013-02-06 17:41:00,33.0,26.0,30.18,SSE,167,3.0,6.0,76,0.00,,,0.01,,2013-02-07 00:41:00,
2013-02-06 17:52:00,33.0,26.0,30.19,South,177,4.0,11.0,76,0.00,,,0.01,,2013-02-07 00:52:00,
2013-02-06 18:01:00,36.0,27.0,30.18,South,177,0.0,5.0,69,0.00,,,0.01,,2013-02-07 01:01:00,
2013-02-06 18:11:00,36.0,27.0,30.18,South,177,0.0,5.0,69,0.00,,,0.01,,2013-02-07 01:11:00,
2013-02-06 18:21:00,36.0,27.0,30.19,South,177,0.0,2.0,69,0.00,,,0.01,,2013-02-07 01:21:00,
2013-02-06 18:31:00,34.0,26.0,30.21,South,177,0.0,1.0,72,0.00,,,0.01,,2013-02-07 01:31:00,
2013-02-06 18:41:00,34.0,26.0,30.21,South,177,0.0,1.0,72,0.00,,,0.01,,2013-02-07 01:41:00,
2013-02-06 18:52:00,33.0,26.0,30.20,South,177,3.0,5.0,74,0.00,,,0.01,,2013-02-07 01:52:00,
2013-02-06 19:01:00,33.0,26.0,30.21,South,177,2.0,5.0,74,0.00,,,0.01,,2013-02-07 02:01:00,
2013-02-06 19:11:00,33.0,26.0,30.21,South,177,2.0,5.0,74,0.00,,,0.01,,2013-02-07 02:11:00,
2013-02-06 19:21:00,32.0,25.0,30.21,South,177,2.0,4.0,76,0.00,,,0.01,,2013-02-07 02:21:00,
2013-02-06 19:31:00,31.0,25.0,30.21,South,177,1.0,3.0,77,0.00,,,0.01,,2013-02-07 02:31:00,
2013-02-06 19:41:00,31.0,25.0,30.21,South,177,1.0,3.0,77,0.00,,,0.01,,2013-02-07 02:41:00,
2013-02-06 19:51:00,31.0,25.0,30.21,South,177,1.0,3.0,77,0.00,,,0.01,,2013-02-07 02:51:00,
2013-02-06 20:01:00,31.0,25.0,30.21,South,177,0.0,1.0,77,0.00,,,0.01,,2013-02-07 03:01:00,
2013-02-06 20:11:00,31.0,25.0,30.21,South,177,0.0,1.0,77,0.00,,,0.01,,2013-02-07 03:11:00,
2013-02-06 20:21:00,29.0,23.0,30.22,South,177,3.0,6.0,78,0.00,,,0.01,,2013-02-07 03:21:00,
2013-02-06 20:31:00,28.0,23.0,30.22,South,177,3.0,5.0,80,0.00,,,0.01,,2013-02-07 03:31:00,
2013-02-06 20:42:00,28.0,23.0,30.22,South,177,3.0,5.0,80,0.00,,,0.01,,2013-02-07 03:42:00,
2013-02-06 20:52:00,26.0,21.0,30.22,South,177,2.0,7.0,81,0.00,,,0.01,,2013-02-07 03:52:00,
2013-02-06 21:01:00,26.0,21.0,30.22,South,177,2.0,4.0,82,0.00,,,0.01,,2013-02-07 04:01:00,
2013-02-06 21:11:00,26.0,21.0,30.22,South,177,2.0,4.0,82,0.00,,,0.01,,2013-02-07 04:11:00,
2013-02-06 21:22:00,25.0,21.0,30.23,South,177,6.0,10.0,83,0.00,,,0.01,,2013-02-07 04:22:00,
2013-02-06 21:31:00,25.0,21.0,30.24,South,177,2.0,7.0,85,0.00,,,0.01,,2013-02-07 04:31:00,
2013-02-06 21:41:00,25.0,21.0,30.24,South,177,2.0,7.0,85,0.00,,,0.01,,2013-02-07 04:41:00,
2013-02-06 21:53:00,25.0,21.0,30.24,South,177,1.0,3.0,85,0.00,,,0.01,,2013-02-07 04:53:00,
2013-02-06 22:01:00,24.0,20.0,30.24,South,177,0.0,4.0,84,0.00,,,0.01,,2013-02-07 05:01:00,
2013-02-06 22:11:00,24.0,20.0,30.24,South,177,0.0,4.0,84,0.00,,,0.01,,2013-02-07 05:11:00,
2013-02-06 22:21:00,23.0,19.0,30.25,South,177,0.0,4.0,85,0.00,,,0.01,,2013-02-07 05:21:00,
2013-02-06 22:32:00,22.0,18.0,30.25,South,177,0.0,1.0,86,0.00,,,0.01,,2013-02-07 05:32:00,
2013-02-06 22:42:00,22.0,18.0,30.25,South,177,0.0,1.0,86,0.00,,,0.01,,2013-02-07 05:42:00,
2013-02-06 22:52:00,21.0,18.0,30.26,South,177,0.0,2.0,87,0.00,,,0.01,,2013-02-07 05:52:00,
2013-02-06 23:01:00,20.0,17.0,30.27,South,177,0.0,2.0,87,0.00,,,0.01,,2013-02-07 06:01:00,
2013-02-06 23:11:00,20.0,17.0,30.27,South,177,0.0,2.0,87,0.00,,,0.01,,2013-02-07 06:11:00,
2013-02-06 23:22:00,20.0,17.0,30.27,South,177,0.0,0.0,88,0.00,,,0.01,,2013-02-07 06:22:00,
2013-02-06 23:31:00,19.0,16.0,30.27,South,177,0.0,4.0,87,0.00,,,0.01,,2013-02-07 06:31:00,
2013-02-06 23:43:00,19.0,16.0,30.27,South,177,0.0,4.0,87,0.00,,,0.01,,2013-02-07 06:43:00,
2013-02-06 23:52:00,18.0,15.0,30.27,South,177,0.0,2.0,88,0.00,,,0.01,,2013-02-07 06:52:00,